This is the latest recevied weather packets stored in our database for station/object EA1JAV-11. If no packets are shown the sender has not sent any weather packets the latest 10 day(s).
| Time | Temp. | Humidity | Pressure | Rain* | Wind** | Luminosity | Snow |
|---|---|---|---|---|---|---|---|
| 1777927104 | 15.56° C | 50% | 992.7 hPa | - | - | - | - |
| 1777925304 | 15.56° C | 50% | 992.2 hPa | - | - | - | - |
| 1777923503 | 16.11° C | 50% | 992 hPa | - | - | - | - |
| 1777921703 | 16.67° C | 49% | 991.7 hPa | - | - | - | - |
| 1777919903 | 17.22° C | 49% | 991.6 hPa | - | - | - | - |
| 1777918103 | 17.22° C | 49% | 991.4 hPa | - | - | - | - |
| 1777916303 | 17.22° C | 48% | 991.3 hPa | - | - | - | - |
| 1777914503 | 17.78° C | 48% | 991.3 hPa | - | - | - | - |
| 1777912703 | 17.22° C | 49% | 991.5 hPa | - | - | - | - |
| 1777910903 | 17.22° C | 49% | 991.3 hPa | - | - | - | - |
| 1777909103 | 17.22° C | 48% | 991.4 hPa | - | - | - | - |
| 1777907303 | 16.67° C | 48% | 991.6 hPa | - | - | - | - |
| 1777905503 | 17.22° C | 47% | 991.5 hPa | - | - | - | - |
| 1777903703 | 17.22° C | 47% | 991.6 hPa | - | - | - | - |
| 1777901903 | 16.67° C | 47% | 991.5 hPa | - | - | - | - |
| 1777900102 | 18.33° C | 47% | 991.6 hPa | - | - | - | - |
| 1777394165 | 28.89° C | 32% | 984.2 hPa | - | - | - | - |
| 1777392365 | 30.56° C | 30% | 984 hPa | - | - | - | - |
| 1777390565 | 31.11° C | 30% | 983.8 hPa | - | - | - | - |
| 1777388765 | 30.56° C | 30% | 983.7 hPa | - | - | - | - |
| 1777386964 | 32.22° C | 29% | 984.3 hPa | - | - | - | - |
| 1777385164 | 31.67° C | 32% | 984.6 hPa | - | - | - | - |
| 1777383364 | 28.89° C | 35% | 984.8 hPa | - | - | - | - |
| 1777381564 | 28.33° C | 37% | 985.2 hPa | - | - | - | - |
| 1777379764 | 26.67° C | 38% | 985.8 hPa | - | - | - | - |
* Rain since midnight (hover to see other rain measurements)
** Current wind speed in m/s (hover to see current wind gust speed)